Dutch
Home     News     Corporate     Events & Tours     Flight ops     Crew centre      
My transavia virtual    Join us    Last logs    Who is flying    Software    Training    VRTS     
 

view flightdata
view flightplan
view OFP
view flightlog



flightdata:
pilot: Jos Peter Jansma
flight: TRA356
from: EGGW (London Luton)
to: EHRD (Rotterdam)
date: 23-07-2019
departure: 19:24z
arrival: 20:10z
duration: 0:45
aircraft: B738 (PHHSJ)
distance: 195 NM
touchdown: -298 ft/m @ 135 KIAS



flightplan:
-(FPL-TRA356-IS
-B738/M-SDE2E3FGIRWXY/LB1
-EGGW1926
-N0363F190 MATCH Q295 BRAIN M197 REDFA
-EHRD0037 EHEH
-PBN/A1B1D1O1S1 DOF/190723 REG/PHHSJ EET/EHAA0020 SEL/JQLP RVR/200 OPR/TRA)



operational flightplan (OFP):
DISPATCH BRIEFING (TEL:
--------- --------- --------- --------- --------- --------- ---------  
PREDEPARTURE ATC CLEARANCE:
.
.
--------- --------- --------- --------- --------- --------- ---------  
OFP  1    23 JUL 19/19:11
                                    OBS  ASKY

TRA356     C/S TRA4211  EGGW/LTN   EHRD/RTM         CRZ SYS     CI 11
23 JUL 19  PH-HSJ       1935/1935  2022/2027        GND DIST      199
           TAB:.....    CTOT:....  STA  2035        AIR DIST      181
                                                    AVG W/C      T029
MAXIMUM    ZFW  62731  LAW  66360  TOW  78975       AVG ISA       P08
ESTIMATED  ZFW  61846  LAW  64138  TOW  65786       F-F FACTOR    0.0
ACTUAL     ZFW  .....  LAW  .....  TOW  .....
--------- --------- --------- --------- --------- --------- ---------
TRIP        1648   0037           .....  .....
CONT         190   0005           .....  .....
ALTN         962   0021  EHEH     .....  .....  ....
FINAL       1140   0030           .....  .....
ADDNL          0   0000           .....  .....
TANKERING                  
PLN TOF     3940   0133
DIFF        ....   ....
PLN TOF     ....   ....  (CORRECTED)   
EXTRA          0   ....                  
TOF         3940   ....                 
TAXI         120   ....                  
BLOCK       4060   ....        
--------- --------- --------- --------- --------- --------- ---------
REASON EXTRA FUEL      MATRIX FUEL:
O ECN-ECONAMICAL     O TMP-TEMPORARILY      O ATC-AIR TRAFFIC CNTRL
O FOB-FUEL ON.BOARD  O MSC-MISCELLANEOUS    O FPC-FLIGHT PLN CORR
O WXR-WEATHER        O TEC-TECHNICAL        ACT.CI/CRZ USED: . . .   

--------- --------- --------- --------- --------- --------- ---------

ZFW ZFW 1000 : PLN TOF   XXXXX/TRIP XXXXX 00 MIN HOLD DEST: 0 EXTRA
ZFW ZFW-1000 : PLN TOF   XXXXX/TRIP XXXXX
--------- --------- --------- --------- --------- --------- ---------
COMMANDERS NAME:                           SIGNATURE:

--------- --------- --------- --------- --------- --------- ---------
FROM:  EGGW ELEV526      TO: EHRD ELEV-14        ALTN: EHEH ELEV  74
ATC C/S     : TRA42TRA356             AVG ISA : P08
CO-ROUTE    :                        AVG TT  :   
FMC-RES FUEL: 2102                   AVG W/C : T029
CRZ ALT     : FL190                  FL310
CI          : CI 11                  FL200     253/032
                                     FL100

EGGW/08  N0363F190 MATC1C MATCH Q295 BRAIN M197 REDFA REDF2R EHRD/24

--------- --------- --------- --------- --------- --------- ---------
.
.
--------- --------- --------- --------- --------- --------- ---------
RVSM ALT CHECK:  FL:...... LEFT: ...... STBY: ...... RIGHT: ......

--------- --------- --------- --------- --------- --------- ---------
DESTINATION ALTERNATE EHEH
--------- --------- --------- --------- --------- --------- ---------

--------- --------- --------- --------- --------- --------- ---------
--------- --------- --------- --------- --------- --------- ---------
ALTERNATE SUMMARY
--------- --------- --------- --------- --------- --------- ---------
      ALTN        DIST   LVL       WC TIME  FUEL VIA
      EHEH/21       79  3000     T006 0021   962 INKE1B INKET INKE2E
INFO/EBBR/25R     104  FL100    H006 0025  1174 WOOD1B WOODY WODY3B
INFO/EDLV/09      128  FL090    T004 0030  1316 ARNE2B ARNEM T196 TEBRO
                                           P71 PISAP Z850 SOBTU
                                           SOBT1W
INFO/EHAM/24      159  FL090    T002 0036  1566 WOOD1B WOODY N872 NIK
                                           L179 HELEN HELE1A
--------- --------- --------- --------- --------- --------- ---------


-(FPL-TRA356-IS
-B738/M-SDE2E3FGIRWXY/LB1
-EGGW1926
-N0363F190 MATCH Q295 BRAIN M197 REDFA
-EHRD0037 EHEH
-PBN/A1B1D1O1S1 DOF/190723 REG/PHHSJ EET/EHAA0020 SEL/JQLP RVR/200 OPR/TRA)

WEATHER BRIEFING - GENERATED 23 JUL 2019 19:11 UTC
--------------------------------------------------------------------------------

EGGW EHRD EHEH EBBR EDLV EHAM

--------------------------------------------------------------------------------
ORIGIN: EGGW (LONDON LUTON)
--------------------------------------------------------------------------------
EGGW 231850Z AUTO 12010KT 9999 NCD 28/15 Q1014

EGGW 231657Z 2318/2418 11010KT 9999 FEW040 PROB30
      TEMPO 2320/2404 13018G28KT 5000 TSRA
      BECMG 2403/2406 25007KT PROB30
      TEMPO 2404/2407 8000 SHRA


--------------------------------------------------------------------------------
DESTINATION: EHRD (ROTTERDAM)
--------------------------------------------------------------------------------
EHRD 231855Z AUTO 06009KT 9999 NCD 26/19 Q1016 NOSIG

EHRD 231735Z 2318/2424 07007KT CAVOK
      BECMG 2401/2404 13007KT
      BECMG 2406/2409 17008KT
      BECMG 2412/2415 30010KT
      BECMG 2418/2421 VRB03KT


--------------------------------------------------------------------------------
ALTERNATE: EHEH (EINDHOVEN)
--------------------------------------------------------------------------------
EHEH 231855Z AUTO 07006KT 040V100 9999 NCD 32/13 Q1016 BLU 07005KT CAVOK

EHEH 231709Z 2318/2424 12005KT CAVOK
      BECMG 2407/2409 16006KT
      BECMG 2418/2420 33006KT


--------------------------------------------------------------------------------
ALTERNATE: EBBR (BRUSSELS)
--------------------------------------------------------------------------------
EBBR 231850Z 08003KT CAVOK 30/15 Q1016 NOSIG

EBBR 231720Z 2318/2424 10004KT CAVOK=  EDDF 231700Z 2318/2424 09006KT CAVOK
      BECMG 2319/2322 03004KT
      BECMG 2408/2411 15005KT
      BECMG 2417/2420 06004KT


--------------------------------------------------------------------------------
ALTERNATE: EDLV (NIEDERRHEIN)
--------------------------------------------------------------------------------
EDLV 231850Z VRB03KT CAVOK 31/16 Q1017

EDLV 231700Z 2318/2418 VRB03KT CAVOK
      BECMG 2405/2408 14007KT


--------------------------------------------------------------------------------
ALTERNATE: EHAM (SCHIPHOL)
--------------------------------------------------------------------------------
EHAM 231855Z 05007KT CAVOK 26/16 Q1017 NOSIG

EHAM 231735Z 2318/2424 07007KT CAVOK
      BECMG 2401/2404 13007KT
      BECMG 2406/2409 16008KT
      BECMG 2413/2416 30010KT
      BECMG 2418/2421 VRB03KT


NOTAM BRIEFING - GENERATED 23 JUL 2019 19:11 UTC
--------------------------------------------------------------------------------

EGGW EHRD EHEH EHEH EBBR EDLV EHAM

--------------------------------------------------------------------------------
GLOBAL TRANSAVIA.COM VIRTUAL NOTAMS
--------------------------------------------------------------------------------
REF:NIL PLEASE CONTACT OPERATIONS IN CASE OF STRUCTURAL FLIGHTPLAN ERRORS ON FLIGHT-OPS@TRANSAVIA-VIRTUAL.COM
VALID:UFN

REF:NIL
PLEASE CHECK ACARS EVERY 10 MINUTES WHEN FLYING WITH SOUND OFF. AN NEW ACARS MESSAGE PRODUCE A SOUND SIGNAL UNTILL ITS READ. FLOWCONTROL DON'T RECEIVE MUCH REACTION ON OUTGOING ACARS MESSAGES ACCORDING FLIGHTSTATUS.
SOURCE: SPL/HV/OCC/
END VALID: UFN

REF:NIL
PLEASE CONTACT FLOWCONTROL IN CASE OF PROBLEMS WITH ROUTINGS
SOURCE: SPL/HV/OCC/
END VALID: UFN

REF:NIL
IN CASE OF ENGINE-OUT FLY V2 OR V2 20 MAX. UNTIL ABOVE MSA.
LEVEL-OFF AT AN ALTITUDE ROUNDED OFF TO THE FIRST 1000 FT OF THE HIGHEST MSA.
E.G: MSA EHAM; 1.7 AND 2.3 LEVEL-OFF 3000 FT. AFTER LANDING MAKE A REP TO OCC ON 131.975
SOURCE:SPL/HV/OCC
END VALID:UFN



flightlog:
Pilot : Jos Peter Jansma
Flight: TRA356
From  : EGGW London Luton
To    : EHRD Rotterdam

[FLIGHTLOG] 1.5.4
23-07-2019 19:22:17z, logging started
23-07-2019 19:24:43z, parking brake released
23-07-2019 19:26:46z, deployed spoilers
23-07-2019 19:26:47z, retracted spoilers
23-07-2019 19:26:48z, deployed spoilers
23-07-2019 19:26:49z, retracted spoilers
23-07-2019 19:27:12z, flaps set to 25%
23-07-2019 19:27:13z, flaps set to 38%
23-07-2019 19:32:48z, take-off at 173 KIAS
23-07-2019 19:32:48z, pos report: 173 KIAS, 00 538 ft, heading 074, winds 000 @ 00 kts
23-07-2019 19:32:48z, flying OFFLINE
23-07-2019 19:32:48z, position: EGGW - London Luton
23-07-2019 19:32:55z, retracted gear at 179 KIAS and 282 ft AGL
23-07-2019 19:34:07z, flaps set to 0%
23-07-2019 19:37:16z, pos report: 294 KIAS, 12 617 ft, heading 082, winds 000 @ 00 kts
23-07-2019 19:52:17z, pos report: 279 KIAS, 13 710 ft, heading 120, winds 000 @ 00 kts
23-07-2019 20:04:10z, flaps set to 13%
23-07-2019 20:04:11z, flaps set to 25%
23-07-2019 20:06:16z, flaps set to 38%
23-07-2019 20:06:25z, flaps set to 50%
23-07-2019 20:06:26z, flaps set to 62%
23-07-2019 20:07:01z, flaps set to 75%
23-07-2019 20:07:17z, flaps set to 87%
23-07-2019 20:07:18z, pos report: 170 KIAS, 02 005 ft, heading 058, winds 000 @ 00 kts
23-07-2019 20:08:33z, flaps set to 100%
23-07-2019 20:08:38z, lowered gear at 163 KIAS and 1921 ft AGL
23-07-2019 20:08:54z, deployed spoilers
23-07-2019 20:10:29z, touchdown: -298ft/m at 135 KIAS
23-07-2019 20:10:29z, pos report: 135 KIAS, -00 003 ft, heading 056, winds 000 @ 00 kts
23-07-2019 20:10:29z, flying OFFLINE
23-07-2019 20:10:29z, position: EHRD - Rotterdam
23-07-2019 20:11:14z, retracted spoilers
23-07-2019 20:11:15z, flaps set to 50%
23-07-2019 20:11:16z, flaps set to 0%
23-07-2019 20:10:28z, parking brake set
23-07-2019 20:15:53z, logging ended
23-07-2019 20:15:53z, this flight was flown offline

©2009-2021, transavia virtual. All rights reserved. This website is only meant for simulation purposes.
This website is not owned by transavia, nor is transavia responsible for the content of this website.